sensor_id;sensor_type;location;lat;lon;timestamp;temperature;humidity
65584;DHT22;62116;43.582;1.470;2022-09-20T00:01:53;18.98;42.07
65584;DHT22;62116;43.582;1.470;2022-09-20T00:04:18;18.92;42.07
65584;DHT22;62116;43.582;1.470;2022-09-20T00:06:43;18.87;42.30
65584;DHT22;62116;43.582;1.470;2022-09-20T00:09:09;18.84;42.38
65584;DHT22;62116;43.582;1.470;2022-09-20T00:11:34;18.80;42.60
65584;DHT22;62116;43.582;1.470;2022-09-20T00:14:02;18.80;42.74
65584;DHT22;62116;43.582;1.470;2022-09-20T00:16:34;18.77;42.67
65584;DHT22;62116;43.582;1.470;2022-09-20T00:19:00;18.67;42.70
65584;DHT22;62116;43.582;1.470;2022-09-20T00:21:29;18.65;42.82
65584;DHT22;62116;43.582;1.470;2022-09-20T00:23:55;18.63;42.76
65584;DHT22;62116;43.582;1.470;2022-09-20T00:26:25;18.57;43.31
65584;DHT22;62116;43.582;1.470;2022-09-20T00:28:51;18.56;43.43
65584;DHT22;62116;43.582;1.470;2022-09-20T00:31:17;18.50;43.33
65584;DHT22;62116;43.582;1.470;2022-09-20T00:33:43;18.49;43.63
65584;DHT22;62116;43.582;1.470;2022-09-20T00:36:27;18.47;43.73
65584;DHT22;62116;43.582;1.470;2022-09-20T00:38:57;18.44;43.93
65584;DHT22;62116;43.582;1.470;2022-09-20T00:41:23;18.41;43.98
65584;DHT22;62116;43.582;1.470;2022-09-20T00:43:49;18.37;43.84
65584;DHT22;62116;43.582;1.470;2022-09-20T00:46:22;18.36;44.29
65584;DHT22;62116;43.582;1.470;2022-09-20T00:48:50;18.32;44.17
65584;DHT22;62116;43.582;1.470;2022-09-20T00:51:24;18.32;44.08
65584;DHT22;62116;43.582;1.470;2022-09-20T00:53:52;18.27;44.39
65584;DHT22;62116;43.582;1.470;2022-09-20T00:56:27;18.29;44.25
65584;DHT22;62116;43.582;1.470;2022-09-20T01:01:40;18.22;45.00
65584;DHT22;62116;43.582;1.470;2022-09-20T01:04:07;18.17;44.79
65584;DHT22;62116;43.582;1.470;2022-09-20T01:06:33;18.12;45.22
65584;DHT22;62116;43.582;1.470;2022-09-20T01:09:01;18.10;45.15
65584;DHT22;62116;43.582;1.470;2022-09-20T01:11:29;18.09;45.25
65584;DHT22;62116;43.582;1.470;2022-09-20T01:13:54;18.06;45.56
65584;DHT22;62116;43.582;1.470;2022-09-20T01:16:21;18.06;45.50
65584;DHT22;62116;43.582;1.470;2022-09-20T01:18:47;18.05;45.93
65584;DHT22;62116;43.582;1.470;2022-09-20T01:21:14;18.03;46.00
65584;DHT22;62116;43.582;1.470;2022-09-20T01:23:50;17.99;45.96
65584;DHT22;62116;43.582;1.470;2022-09-20T01:29:17;17.85;46.37
65584;DHT22;62116;43.582;1.470;2022-09-20T01:31:53;17.86;46.52
65584;DHT22;62116;43.582;1.470;2022-09-20T01:34:34;17.83;46.59
65584;DHT22;62116;43.582;1.470;2022-09-20T01:39:47;17.81;47.42
65584;DHT22;62116;43.582;1.470;2022-09-20T01:42:16;17.76;47.38
65584;DHT22;62116;43.582;1.470;2022-09-20T02:20:55;17.20;48.27
65584;DHT22;62116;43.582;1.470;2022-09-20T02:23:38;17.15;48.42
65584;DHT22;62116;43.582;1.470;2022-09-20T02:32:02;17.07;48.33
65584;DHT22;62116;43.582;1.470;2022-09-20T02:40:14;17.01;48.09
65584;DHT22;62116;43.582;1.470;2022-09-20T02:43:25;17.00;48.22
65584;DHT22;62116;43.582;1.470;2022-09-20T02:48:37;16.98;48.29
65584;DHT22;62116;43.582;1.470;2022-09-20T02:54:10;16.92;48.59
65584;DHT22;62116;43.582;1.470;2022-09-20T02:56:59;16.94;48.33
65584;DHT22;62116;43.582;1.470;2022-09-20T02:59:37;16.91;48.23
65584;DHT22;62116;43.582;1.470;2022-09-20T03:02:35;16.90;48.36
65584;DHT22;62116;43.582;1.470;2022-09-20T03:05:29;16.90;48.35
65584;DHT22;62116;43.582;1.470;2022-09-20T03:08:00;16.88;48.50
65584;DHT22;62116;43.582;1.470;2022-09-20T03:18:17;16.76;48.66
65584;DHT22;62116;43.582;1.470;2022-09-20T03:21:08;16.74;48.55
65584;DHT22;62116;43.582;1.470;2022-09-20T03:23:40;16.68;48.83
65584;DHT22;62116;43.582;1.470;2022-09-20T03:26:14;16.68;48.85
65584;DHT22;62116;43.582;1.470;2022-09-20T03:31:46;16.66;48.97
65584;DHT22;62116;43.582;1.470;2022-09-20T03:37:18;16.63;49.22
65584;DHT22;62116;43.582;1.470;2022-09-20T03:40:10;16.60;49.41
65584;DHT22;62116;43.582;1.470;2022-09-20T03:42:45;16.59;49.44
65584;DHT22;62116;43.582;1.470;2022-09-20T03:45:37;16.57;49.42
65584;DHT22;62116;43.582;1.470;2022-09-20T04:02:27;16.39;49.17
65584;DHT22;62116;43.582;1.470;2022-09-20T04:05:21;16.34;49.59
65584;DHT22;62116;43.582;1.470;2022-09-20T04:18:50;16.22;50.14
65584;DHT22;62116;43.582;1.470;2022-09-20T04:21:19;16.19;50.01
65584;DHT22;62116;43.582;1.470;2022-09-20T04:24:16;16.17;50.24
65584;DHT22;62116;43.582;1.470;2022-09-20T04:26:50;16.09;50.94
65584;DHT22;62116;43.582;1.470;2022-09-20T04:29:39;16.05;51.02
65584;DHT22;62116;43.582;1.470;2022-09-20T04:32:23;16.01;50.90
65584;DHT22;62116;43.582;1.470;2022-09-20T04:35:03;15.98;51.32
65584;DHT22;62116;43.582;1.470;2022-09-20T04:37:49;16.02;51.11
65584;DHT22;62116;43.582;1.470;2022-09-20T04:48:52;15.85;51.40
65584;DHT22;62116;43.582;1.470;2022-09-20T04:54:30;15.82;51.63
65584;DHT22;62116;43.582;1.470;2022-09-20T05:00:06;15.75;52.43
65584;DHT22;62116;43.582;1.470;2022-09-20T05:03:18;15.77;52.34
65584;DHT22;62116;43.582;1.470;2022-09-20T05:06:11;15.73;52.31
65584;DHT22;62116;43.582;1.470;2022-09-20T05:19:36;15.58;52.43
65584;DHT22;62116;43.582;1.470;2022-09-20T05:22:53;15.61;52.31
65584;DHT22;62116;43.582;1.470;2022-09-20T05:27:56;15.61;52.42
65584;DHT22;62116;43.582;1.470;2022-09-20T05:30:34;15.57;52.67
65584;DHT22;62116;43.582;1.470;2022-09-20T05:38:08;15.61;52.55
65584;DHT22;62116;43.582;1.470;2022-09-20T05:43:42;15.54;52.78
65584;DHT22;62116;43.582;1.470;2022-09-20T06:01:05;15.44;53.42
65584;DHT22;62116;43.582;1.470;2022-09-20T06:03:48;15.41;53.30
65584;DHT22;62116;43.582;1.470;2022-09-20T06:12:46;15.47;53.90
65584;DHT22;62116;43.582;1.470;2022-09-20T06:15:43;15.44;54.10
65584;DHT22;62116;43.582;1.470;2022-09-20T06:21:08;15.39;53.75
65584;DHT22;62116;43.582;1.470;2022-09-20T06:23:36;15.38;54.25
65584;DHT22;62116;43.582;1.470;2022-09-20T06:26:06;15.41;53.54
65584;DHT22;62116;43.582;1.470;2022-09-20T06:28:46;15.44;53.94
65584;DHT22;62116;43.582;1.470;2022-09-20T06:31:14;15.48;54.02
65584;DHT22;62116;43.582;1.470;2022-09-20T06:36:24;15.52;54.28
65584;DHT22;62116;43.582;1.470;2022-09-20T06:41:59;15.58;54.05
65584;DHT22;62116;43.582;1.470;2022-09-20T06:44:25;15.59;54.38
65584;DHT22;62116;43.582;1.470;2022-09-20T06:46:50;15.63;53.80
65584;DHT22;62116;43.582;1.470;2022-09-20T06:49:19;15.65;54.21
65584;DHT22;62116;43.582;1.470;2022-09-20T06:51:45;15.63;53.68
65584;DHT22;62116;43.582;1.470;2022-09-20T06:54:17;15.71;53.31
65584;DHT22;62116;43.582;1.470;2022-09-20T06:56:44;15.72;53.65
65584;DHT22;62116;43.582;1.470;2022-09-20T06:59:11;15.73;53.61
65584;DHT22;62116;43.582;1.470;2022-09-20T07:01:37;15.73;53.50
65584;DHT22;62116;43.582;1.470;2022-09-20T07:04:03;15.79;53.11
65584;DHT22;62116;43.582;1.470;2022-09-20T07:06:30;15.82;53.01
65584;DHT22;62116;43.582;1.470;2022-09-20T07:08:56;15.85;52.94
65584;DHT22;62116;43.582;1.470;2022-09-20T07:11:21;15.86;53.13
65584;DHT22;62116;43.582;1.470;2022-09-20T07:13:52;15.88;53.29
65584;DHT22;62116;43.582;1.470;2022-09-20T07:16:18;15.93;53.11
65584;DHT22;62116;43.582;1.470;2022-09-20T07:18:44;15.96;52.97
65584;DHT22;62116;43.582;1.470;2022-09-20T07:21:10;16.05;52.69
65584;DHT22;62116;43.582;1.470;2022-09-20T07:23:36;16.12;52.54
65584;DHT22;62116;43.582;1.470;2022-09-20T07:26:02;16.29;52.70
65584;DHT22;62116;43.582;1.470;2022-09-20T07:28:31;16.42;52.64
65584;DHT22;62116;43.582;1.470;2022-09-20T07:30:59;16.68;51.79
65584;DHT22;62116;43.582;1.470;2022-09-20T07:33:25;16.88;50.93
65584;DHT22;62116;43.582;1.470;2022-09-20T07:35:52;17.08;50.52
65584;DHT22;62116;43.582;1.470;2022-09-20T07:38:21;17.30;50.08
65584;DHT22;62116;43.582;1.470;2022-09-20T07:40:57;17.30;49.35
65584;DHT22;62116;43.582;1.470;2022-09-20T07:43:24;17.42;49.26
65584;DHT22;62116;43.582;1.470;2022-09-20T07:45:53;17.45;49.15
65584;DHT22;62116;43.582;1.470;2022-09-20T07:48:24;17.53;48.77
65584;DHT22;62116;43.582;1.470;2022-09-20T07:50:55;17.62;48.58
65584;DHT22;62116;43.582;1.470;2022-09-20T07:53:21;17.72;48.10
65584;DHT22;62116;43.582;1.470;2022-09-20T07:58:28;17.92;47.65
65584;DHT22;62116;43.582;1.470;2022-09-20T08:00:55;17.90;47.59
65584;DHT22;62116;43.582;1.470;2022-09-20T08:03:21;18.00;47.26
65584;DHT22;62116;43.582;1.470;2022-09-20T08:05:47;17.97;47.15
65584;DHT22;62116;43.582;1.470;2022-09-20T08:08:15;17.99;47.13
65584;DHT22;62116;43.582;1.470;2022-09-20T08:10:42;18.00;47.32
65584;DHT22;62116;43.582;1.470;2022-09-20T08:13:09;18.05;47.05
65584;DHT22;62116;43.582;1.470;2022-09-20T08:15:34;18.03;47.11
65584;DHT22;62116;43.582;1.470;2022-09-20T08:18:00;18.03;47.18
65584;DHT22;62116;43.582;1.470;2022-09-20T08:20:26;18.06;47.28
65584;DHT22;62116;43.582;1.470;2022-09-20T08:22:51;18.10;47.20
65584;DHT22;62116;43.582;1.470;2022-09-20T08:25:19;18.13;47.34
65584;DHT22;62116;43.582;1.470;2022-09-20T08:27:51;18.06;47.12
65584;DHT22;62116;43.582;1.470;2022-09-20T08:30:17;18.07;47.18
65584;DHT22;62116;43.582;1.470;2022-09-20T08:32:42;18.17;47.14
65584;DHT22;62116;43.582;1.470;2022-09-20T08:35:08;18.23;46.62
65584;DHT22;62116;43.582;1.470;2022-09-20T08:37:33;18.40;46.71
65584;DHT22;62116;43.582;1.470;2022-09-20T08:39:59;18.65;46.53
65584;DHT22;62116;43.582;1.470;2022-09-20T08:42:33;19.04;46.25
65584;DHT22;62116;43.582;1.470;2022-09-20T08:45:04;19.45;45.95
65584;DHT22;62116;43.582;1.470;2022-09-20T08:47:36;19.87;44.36
65584;DHT22;62116;43.582;1.470;2022-09-20T08:50:06;20.39;44.16
65584;DHT22;62116;43.582;1.470;2022-09-20T08:52:35;20.85;42.41
65584;DHT22;62116;43.582;1.470;2022-09-20T08:55:05;21.34;42.68
65584;DHT22;62116;43.582;1.470;2022-09-20T08:57:37;21.85;41.42
65584;DHT22;62116;43.582;1.470;2022-09-20T09:00:04;22.36;40.15
65584;DHT22;62116;43.582;1.470;2022-09-20T09:02:31;22.63;38.12
65584;DHT22;62116;43.582;1.470;2022-09-20T09:04:58;22.61;37.97
65584;DHT22;62116;43.582;1.470;2022-09-20T09:07:24;22.83;37.81
65584;DHT22;62116;43.582;1.470;2022-09-20T09:09:53;22.79;37.50
65584;DHT22;62116;43.582;1.470;2022-09-20T09:12:24;22.95;38.10
65584;DHT22;62116;43.582;1.470;2022-09-20T09:14:58;23.42;37.44
65584;DHT22;62116;43.582;1.470;2022-09-20T09:17:28;23.66;36.96
65584;DHT22;62116;43.582;1.470;2022-09-20T09:19:58;23.97;36.49
65584;DHT22;62116;43.582;1.470;2022-09-20T09:22:40;24.00;36.46
65584;DHT22;62116;43.582;1.470;2022-09-20T09:27:56;24.71;35.52
65584;DHT22;62116;43.582;1.470;2022-09-20T09:32:51;25.28;35.11
65584;DHT22;62116;43.582;1.470;2022-09-20T09:35:24;25.22;34.14
65584;DHT22;62116;43.582;1.470;2022-09-20T09:38:01;25.45;34.69
65584;DHT22;62116;43.582;1.470;2022-09-20T09:40:30;25.26;34.49
65584;DHT22;62116;43.582;1.470;2022-09-20T09:42:59;25.09;33.84
65584;DHT22;62116;43.582;1.470;2022-09-20T09:45:34;25.07;34.24
65584;DHT22;62116;43.582;1.470;2022-09-20T09:48:34;24.96;34.04
65584;DHT22;62116;43.582;1.470;2022-09-20T09:51:10;24.98;34.97
65584;DHT22;62116;43.582;1.470;2022-09-20T09:53:37;25.19;34.61
65584;DHT22;62116;43.582;1.470;2022-09-20T10:04:16;24.20;34.66
65584;DHT22;62116;43.582;1.470;2022-09-20T10:09:51;24.60;35.10
65584;DHT22;62116;43.582;1.470;2022-09-20T10:23:10;24.72;34.58
65584;DHT22;62116;43.582;1.470;2022-09-20T10:25:52;24.74;34.77
65584;DHT22;62116;43.582;1.470;2022-09-20T10:37:01;24.64;34.66
65584;DHT22;62116;43.582;1.470;2022-09-20T10:39:33;24.61;34.84
65584;DHT22;62116;43.582;1.470;2022-09-20T10:51:19;24.30;35.25
65584;DHT22;62116;43.582;1.470;2022-09-20T10:56:34;23.99;35.54
65584;DHT22;62116;43.582;1.470;2022-09-20T11:05:03;24.02;35.34
65584;DHT22;62116;43.582;1.470;2022-09-20T11:10:23;24.13;35.47
65584;DHT22;62116;43.582;1.470;2022-09-20T11:15:38;24.21;34.90
65584;DHT22;62116;43.582;1.470;2022-09-20T11:18:18;24.18;34.62
65584;DHT22;62116;43.582;1.470;2022-09-20T11:21:07;24.10;34.51
65584;DHT22;62116;43.582;1.470;2022-09-20T11:26:29;24.12;34.50
65584;DHT22;62116;43.582;1.470;2022-09-20T11:31:46;24.16;33.73
65584;DHT22;62116;43.582;1.470;2022-09-20T11:37:37;24.13;33.53
65584;DHT22;62116;43.582;1.470;2022-09-20T11:40:24;24.13;33.40
65584;DHT22;62116;43.582;1.470;2022-09-20T11:42:51;24.14;33.58
65584;DHT22;62116;43.582;1.470;2022-09-20T11:45:19;24.16;33.53
65584;DHT22;62116;43.582;1.470;2022-09-20T11:47:52;24.14;33.57
65584;DHT22;62116;43.582;1.470;2022-09-20T11:56:24;24.10;32.84
65584;DHT22;62116;43.582;1.470;2022-09-20T11:58:59;24.09;32.10
65584;DHT22;62116;43.582;1.470;2022-09-20T12:01:35;24.04;32.31
65584;DHT22;62116;43.582;1.470;2022-09-20T12:04:07;23.99;32.71
65584;DHT22;62116;43.582;1.470;2022-09-20T12:06:38;23.97;31.93
65584;DHT22;62116;43.582;1.470;2022-09-20T12:09:19;23.96;31.63
65584;DHT22;62116;43.582;1.470;2022-09-20T12:11:46;23.92;31.62
65584;DHT22;62116;43.582;1.470;2022-09-20T12:14:22;23.84;31.71
65584;DHT22;62116;43.582;1.470;2022-09-20T12:16:49;23.83;32.08
65584;DHT22;62116;43.582;1.470;2022-09-20T12:24:31;23.83;31.34
65584;DHT22;62116;43.582;1.470;2022-09-20T12:27:05;23.84;31.17
65584;DHT22;62116;43.582;1.470;2022-09-20T12:29:53;23.83;31.37
65584;DHT22;62116;43.582;1.470;2022-09-20T12:32:42;23.82;31.06
65584;DHT22;62116;43.582;1.470;2022-09-20T12:38:30;23.82;30.36
65584;DHT22;62116;43.582;1.470;2022-09-20T12:41:06;23.80;30.12
65584;DHT22;62116;43.582;1.470;2022-09-20T12:43:36;23.84;29.79
65584;DHT22;62116;43.582;1.470;2022-09-20T12:46:02;23.80;29.67
65584;DHT22;62116;43.582;1.470;2022-09-20T12:48:33;23.79;29.18
65584;DHT22;62116;43.582;1.470;2022-09-20T12:51:04;23.83;29.36
65584;DHT22;62116;43.582;1.470;2022-09-20T12:54:02;23.82;29.84
65584;DHT22;62116;43.582;1.470;2022-09-20T12:56:33;23.82;29.76
65584;DHT22;62116;43.582;1.470;2022-09-20T12:59:01;23.84;30.17
65584;DHT22;62116;43.582;1.470;2022-09-20T13:01:32;23.86;30.20
65584;DHT22;62116;43.582;1.470;2022-09-20T13:07:41;23.86;29.62
65584;DHT22;62116;43.582;1.470;2022-09-20T13:10:28;23.89;28.48
65584;DHT22;62116;43.582;1.470;2022-09-20T13:12:59;23.87;28.90
65584;DHT22;62116;43.582;1.470;2022-09-20T13:15:25;23.84;29.18
65584;DHT22;62116;43.582;1.470;2022-09-20T13:17:54;23.86;29.23
65584;DHT22;62116;43.582;1.470;2022-09-20T13:20:23;23.90;29.01
65584;DHT22;62116;43.582;1.470;2022-09-20T13:22:51;23.87;28.86
65584;DHT22;62116;43.582;1.470;2022-09-20T13:25:18;23.87;28.42
65584;DHT22;62116;43.582;1.470;2022-09-20T13:28:09;23.89;28.51
65584;DHT22;62116;43.582;1.470;2022-09-20T13:30:38;23.93;28.68
65584;DHT22;62116;43.582;1.470;2022-09-20T13:33:20;23.90;28.41
65584;DHT22;62116;43.582;1.470;2022-09-20T13:35:52;23.92;28.51
65584;DHT22;62116;43.582;1.470;2022-09-20T13:38:19;23.92;28.21
65584;DHT22;62116;43.582;1.470;2022-09-20T13:40:47;23.92;27.54
65584;DHT22;62116;43.582;1.470;2022-09-20T13:43:32;23.92;27.68
65584;DHT22;62116;43.582;1.470;2022-09-20T13:46:12;23.92;27.75
65584;DHT22;62116;43.582;1.470;2022-09-20T13:48:38;23.94;27.68
65584;DHT22;62116;43.582;1.470;2022-09-20T13:51:16;24.00;27.54
65584;DHT22;62116;43.582;1.470;2022-09-20T13:53:42;24.03;26.51
65584;DHT22;62116;43.582;1.470;2022-09-20T13:56:28;24.03;26.90
65584;DHT22;62116;43.582;1.470;2022-09-20T13:58:54;24.04;27.16
65584;DHT22;62116;43.582;1.470;2022-09-20T14:01:27;24.03;27.26
65584;DHT22;62116;43.582;1.470;2022-09-20T14:03:54;24.02;26.95
65584;DHT22;62116;43.582;1.470;2022-09-20T14:06:23;24.02;26.71
65584;DHT22;62116;43.582;1.470;2022-09-20T14:08:55;24.04;25.77
65584;DHT22;62116;43.582;1.470;2022-09-20T14:11:24;24.06;25.53
65584;DHT22;62116;43.582;1.470;2022-09-20T14:13:54;24.04;25.66
65584;DHT22;62116;43.582;1.470;2022-09-20T14:16:23;24.07;25.53
65584;DHT22;62116;43.582;1.470;2022-09-20T14:18:52;24.10;24.94
65584;DHT22;62116;43.582;1.470;2022-09-20T14:21:22;24.09;25.33
65584;DHT22;62116;43.582;1.470;2022-09-20T14:26:26;24.14;25.32
65584;DHT22;62116;43.582;1.470;2022-09-20T14:28:52;24.14;25.09
65584;DHT22;62116;43.582;1.470;2022-09-20T14:31:23;24.17;24.01
65584;DHT22;62116;43.582;1.470;2022-09-20T14:33:51;24.16;24.07
65584;DHT22;62116;43.582;1.470;2022-09-20T14:36:21;24.17;24.11
65584;DHT22;62116;43.582;1.470;2022-09-20T14:38:49;24.17;24.34
65584;DHT22;62116;43.582;1.470;2022-09-20T14:41:24;24.18;24.47
65584;DHT22;62116;43.582;1.470;2022-09-20T14:43:57;24.20;24.12
65584;DHT22;62116;43.582;1.470;2022-09-20T14:46:29;24.21;24.19
65584;DHT22;62116;43.582;1.470;2022-09-20T14:49:19;24.20;24.22
65584;DHT22;62116;43.582;1.470;2022-09-20T14:51:45;24.18;24.38
65584;DHT22;62116;43.582;1.470;2022-09-20T14:56:38;24.24;24.33
65584;DHT22;62116;43.582;1.470;2022-09-20T15:01:31;24.26;24.49
65584;DHT22;62116;43.582;1.470;2022-09-20T15:03:57;24.24;24.32
65584;DHT22;62116;43.582;1.470;2022-09-20T15:06:23;24.28;24.49
65584;DHT22;62116;43.582;1.470;2022-09-20T15:08:49;24.27;24.75
65584;DHT22;62116;43.582;1.470;2022-09-20T15:11:16;24.23;24.69
65584;DHT22;62116;43.582;1.470;2022-09-20T15:13:41;24.28;24.63
65584;DHT22;62116;43.582;1.470;2022-09-20T15:16:11;24.27;24.85
65584;DHT22;62116;43.582;1.470;2022-09-20T15:18:41;24.28;25.00
65584;DHT22;62116;43.582;1.470;2022-09-20T15:21:07;24.26;25.13
65584;DHT22;62116;43.582;1.470;2022-09-20T15:23:35;24.24;25.15
65584;DHT22;62116;43.582;1.470;2022-09-20T15:26:01;24.26;25.00
65584;DHT22;62116;43.582;1.470;2022-09-20T15:28:27;24.26;24.82
65584;DHT22;62116;43.582;1.470;2022-09-20T15:30:53;24.21;25.02
65584;DHT22;62116;43.582;1.470;2022-09-20T15:33:19;24.21;25.12
65584;DHT22;62116;43.582;1.470;2022-09-20T15:35:46;24.23;25.15
65584;DHT22;62116;43.582;1.470;2022-09-20T15:38:12;24.20;25.29
65584;DHT22;62116;43.582;1.470;2022-09-20T15:40:39;24.20;25.40
65584;DHT22;62116;43.582;1.470;2022-09-20T15:43:05;24.20;25.43
65584;DHT22;62116;43.582;1.470;2022-09-20T15:45:33;24.18;25.54
65584;DHT22;62116;43.582;1.470;2022-09-20T15:47:59;24.20;25.79
65584;DHT22;62116;43.582;1.470;2022-09-20T15:50:24;24.17;25.75
65584;DHT22;62116;43.582;1.470;2022-09-20T15:52:50;24.17;25.79
65584;DHT22;62116;43.582;1.470;2022-09-20T15:55:17;24.16;25.52
65584;DHT22;62116;43.582;1.470;2022-09-20T15:57:43;24.13;25.82
65584;DHT22;62116;43.582;1.470;2022-09-20T16:00:09;24.16;25.92
65584;DHT22;62116;43.582;1.470;2022-09-20T16:02:34;24.13;25.75
65584;DHT22;62116;43.582;1.470;2022-09-20T16:05:00;24.14;25.74
65584;DHT22;62116;43.582;1.470;2022-09-20T16:07:26;24.13;25.77
65584;DHT22;62116;43.582;1.470;2022-09-20T16:09:53;24.14;25.41
65584;DHT22;62116;43.582;1.470;2022-09-20T16:12:20;24.13;25.52
65584;DHT22;62116;43.582;1.470;2022-09-20T16:14:45;24.10;25.56
65584;DHT22;62116;43.582;1.470;2022-09-20T16:17:11;24.09;25.41
65584;DHT22;62116;43.582;1.470;2022-09-20T16:19:36;24.06;25.41
65584;DHT22;62116;43.582;1.470;2022-09-20T16:22:03;24.03;25.46
65584;DHT22;62116;43.582;1.470;2022-09-20T16:24:31;24.03;25.06
65584;DHT22;62116;43.582;1.470;2022-09-20T16:26:58;24.00;24.84
65584;DHT22;62116;43.582;1.470;2022-09-20T16:29:25;24.00;25.18
65584;DHT22;62116;43.582;1.470;2022-09-20T16:31:52;23.97;25.05
65584;DHT22;62116;43.582;1.470;2022-09-20T16:34:26;23.96;25.22
65584;DHT22;62116;43.582;1.470;2022-09-20T16:37:08;23.97;25.37
65584;DHT22;62116;43.582;1.470;2022-09-20T16:39:34;23.96;25.61
65584;DHT22;62116;43.582;1.470;2022-09-20T16:42:01;23.90;25.61
65584;DHT22;62116;43.582;1.470;2022-09-20T16:44:31;23.90;25.38
65584;DHT22;62116;43.582;1.470;2022-09-20T16:46:57;23.87;25.59
65584;DHT22;62116;43.582;1.470;2022-09-20T16:49:22;23.86;25.48
65584;DHT22;62116;43.582;1.470;2022-09-20T16:51:50;23.82;25.26
65584;DHT22;62116;43.582;1.470;2022-09-20T16:54:16;23.79;25.17
65584;DHT22;62116;43.582;1.470;2022-09-20T16:56:43;23.77;25.33
65584;DHT22;62116;43.582;1.470;2022-09-20T16:59:10;23.77;25.43
65584;DHT22;62116;43.582;1.470;2022-09-20T17:01:36;23.74;25.43
65584;DHT22;62116;43.582;1.470;2022-09-20T17:04:03;23.72;25.45
65584;DHT22;62116;43.582;1.470;2022-09-20T17:06:33;23.66;25.41
65584;DHT22;62116;43.582;1.470;2022-09-20T17:08:59;23.65;24.96
65584;DHT22;62116;43.582;1.470;2022-09-20T17:11:27;23.58;25.08
65584;DHT22;62116;43.582;1.470;2022-09-20T17:13:54;23.59;25.14
65584;DHT22;62116;43.582;1.470;2022-09-20T17:16:27;23.55;25.45
65584;DHT22;62116;43.582;1.470;2022-09-20T17:19:01;23.50;25.55
65584;DHT22;62116;43.582;1.470;2022-09-20T17:21:28;23.48;25.74
65584;DHT22;62116;43.582;1.470;2022-09-20T17:23:56;23.48;25.67
65584;DHT22;62116;43.582;1.470;2022-09-20T17:26:27;23.42;25.99
65584;DHT22;62116;43.582;1.470;2022-09-20T17:28:55;23.41;26.19
65584;DHT22;62116;43.582;1.470;2022-09-20T17:31:31;23.35;26.51
65584;DHT22;62116;43.582;1.470;2022-09-20T17:33:58;23.33;26.65
65584;DHT22;62116;43.582;1.470;2022-09-20T17:36:26;23.35;26.65
65584;DHT22;62116;43.582;1.470;2022-09-20T17:38:54;23.29;26.75
65584;DHT22;62116;43.582;1.470;2022-09-20T17:41:20;23.28;26.95
65584;DHT22;62116;43.582;1.470;2022-09-20T17:43:47;23.23;27.06
65584;DHT22;62116;43.582;1.470;2022-09-20T17:46:21;23.22;27.26
65584;DHT22;62116;43.582;1.470;2022-09-20T17:48:58;23.19;27.58
65584;DHT22;62116;43.582;1.470;2022-09-20T17:51:27;23.15;27.73
65584;DHT22;62116;43.582;1.470;2022-09-20T17:53:53;23.14;28.03
65584;DHT22;62116;43.582;1.470;2022-09-20T17:56:20;23.11;28.26
65584;DHT22;62116;43.582;1.470;2022-09-20T17:58:48;23.05;28.39
65584;DHT22;62116;43.582;1.470;2022-09-20T18:01:16;23.04;28.45
65584;DHT22;62116;43.582;1.470;2022-09-20T18:03:45;22.95;28.56
65584;DHT22;62116;43.582;1.470;2022-09-20T18:08:56;22.88;28.69
65584;DHT22;62116;43.582;1.470;2022-09-20T18:11:26;22.84;28.88
65584;DHT22;62116;43.582;1.470;2022-09-20T18:13:52;22.81;29.03
65584;DHT22;62116;43.582;1.470;2022-09-20T18:16:17;22.75;29.25
65584;DHT22;62116;43.582;1.470;2022-09-20T18:18:44;22.71;29.29
65584;DHT22;62116;43.582;1.470;2022-09-20T18:21:11;22.68;29.58
65584;DHT22;62116;43.582;1.470;2022-09-20T18:23:37;22.63;29.62
65584;DHT22;62116;43.582;1.470;2022-09-20T18:26:06;22.61;29.79
65584;DHT22;62116;43.582;1.470;2022-09-20T18:29:04;22.54;30.22
65584;DHT22;62116;43.582;1.470;2022-09-20T18:31:38;22.47;30.42
65584;DHT22;62116;43.582;1.470;2022-09-20T18:34:07;22.45;30.52
65584;DHT22;62116;43.582;1.470;2022-09-20T18:36:35;22.43;30.74
65584;DHT22;62116;43.582;1.470;2022-09-20T18:39:02;22.39;30.93
65584;DHT22;62116;43.582;1.470;2022-09-20T18:41:30;22.36;31.21
65584;DHT22;62116;43.582;1.470;2022-09-20T18:43:57;22.30;31.21
65584;DHT22;62116;43.582;1.470;2022-09-20T18:46:24;22.29;31.40
65584;DHT22;62116;43.582;1.470;2022-09-20T18:48:58;22.27;31.53
65584;DHT22;62116;43.582;1.470;2022-09-20T18:51:26;22.23;31.66
65584;DHT22;62116;43.582;1.470;2022-09-20T18:53:55;22.18;32.02
65584;DHT22;62116;43.582;1.470;2022-09-20T18:56:31;22.10;32.04
65584;DHT22;62116;43.582;1.470;2022-09-20T18:59:00;22.09;32.25
65584;DHT22;62116;43.582;1.470;2022-09-20T19:26:23;21.78;33.61
65584;DHT22;62116;43.582;1.470;2022-09-20T19:28:50;21.76;33.78
65584;DHT22;62116;43.582;1.470;2022-09-20T19:31:30;21.73;33.95
65584;DHT22;62116;43.582;1.470;2022-09-20T19:33:58;21.70;33.74
65584;DHT22;62116;43.582;1.470;2022-09-20T19:39:25;21.63;33.93
65584;DHT22;62116;43.582;1.470;2022-09-20T19:44:34;21.59;34.08
65584;DHT22;62116;43.582;1.470;2022-09-20T19:47:13;21.56;34.10
65584;DHT22;62116;43.582;1.470;2022-09-20T19:49:54;21.55;34.14
65584;DHT22;62116;43.582;1.470;2022-09-20T19:52:21;21.49;34.16
65584;DHT22;62116;43.582;1.470;2022-09-20T19:54:48;21.45;34.09
65584;DHT22;62116;43.582;1.470;2022-09-20T19:57:28;21.45;37.24
65584;DHT22;62116;43.582;1.470;2022-09-20T19:59:55;21.41;39.83
65584;DHT22;62116;43.582;1.470;2022-09-20T20:02:22;21.41;40.00
65584;DHT22;62116;43.582;1.470;2022-09-20T20:04:48;21.38;38.64
65584;DHT22;62116;43.582;1.470;2022-09-20T20:07:25;21.36;38.77
65584;DHT22;62116;43.582;1.470;2022-09-20T20:10:10;21.36;39.21
65584;DHT22;62116;43.582;1.470;2022-09-20T20:20:47;21.19;37.00
65584;DHT22;62116;43.582;1.470;2022-09-20T20:26:06;21.14;36.03
65584;DHT22;62116;43.582;1.470;2022-09-20T20:28:33;21.06;36.70
65584;DHT22;62116;43.582;1.470;2022-09-20T20:30:59;21.04;36.85
65584;DHT22;62116;43.582;1.470;2022-09-20T20:33:28;21.01;36.88
65584;DHT22;62116;43.582;1.470;2022-09-20T20:35:56;20.99;36.56
65584;DHT22;62116;43.582;1.470;2022-09-20T20:38:23;20.94;35.92
65584;DHT22;62116;43.582;1.470;2022-09-20T20:43:25;20.90;36.66
65584;DHT22;62116;43.582;1.470;2022-09-20T20:45:50;20.88;37.04
65584;DHT22;62116;43.582;1.470;2022-09-20T20:48:16;20.87;36.68
65584;DHT22;62116;43.582;1.470;2022-09-20T20:50:41;20.83;37.10
65584;DHT22;62116;43.582;1.470;2022-09-20T20:53:06;20.80;37.50
65584;DHT22;62116;43.582;1.470;2022-09-20T20:55:32;20.75;37.01
65584;DHT22;62116;43.582;1.470;2022-09-20T20:57:57;20.75;36.81
65584;DHT22;62116;43.582;1.470;2022-09-20T21:00:24;20.70;36.97
65584;DHT22;62116;43.582;1.470;2022-09-20T21:02:57;20.64;37.67
65584;DHT22;62116;43.582;1.470;2022-09-20T21:05:23;20.64;37.46